sensor_id;sensor_type;location;lat;lon;timestamp;temperature;humidity
18177;DHT22;9213;50.858;3.964;2023-04-15T00:02:16;15.10;48.90
18177;DHT22;9213;50.858;3.964;2023-04-15T00:04:43;15.10;49.00
18177;DHT22;9213;50.858;3.964;2023-04-15T00:07:12;15.00;48.80
18177;DHT22;9213;50.858;3.964;2023-04-15T00:09:39;15.00;49.10
18177;DHT22;9213;50.858;3.964;2023-04-15T00:12:07;15.00;49.20
18177;DHT22;9213;50.858;3.964;2023-04-15T00:14:34;15.00;49.30
18177;DHT22;9213;50.858;3.964;2023-04-15T00:17:01;15.00;49.50
18177;DHT22;9213;50.858;3.964;2023-04-15T00:19:29;14.90;49.70
18177;DHT22;9213;50.858;3.964;2023-04-15T00:21:56;14.90;49.90
18177;DHT22;9213;50.858;3.964;2023-04-15T00:24:24;14.90;50.00
18177;DHT22;9213;50.858;3.964;2023-04-15T00:26:51;14.90;50.10
18177;DHT22;9213;50.858;3.964;2023-04-15T00:29:18;14.90;50.30
18177;DHT22;9213;50.858;3.964;2023-04-15T00:31:45;14.90;50.30
18177;DHT22;9213;50.858;3.964;2023-04-15T00:34:12;14.90;50.20
18177;DHT22;9213;50.858;3.964;2023-04-15T00:36:39;14.90;50.10
18177;DHT22;9213;50.858;3.964;2023-04-15T00:39:06;14.90;50.10
18177;DHT22;9213;50.858;3.964;2023-04-15T00:41:35;14.80;50.10
18177;DHT22;9213;50.858;3.964;2023-04-15T00:44:04;14.80;50.40
18177;DHT22;9213;50.858;3.964;2023-04-15T00:46:32;14.80;50.50
18177;DHT22;9213;50.858;3.964;2023-04-15T00:49:02;14.80;50.70
18177;DHT22;9213;50.858;3.964;2023-04-15T00:51:29;14.80;50.70
18177;DHT22;9213;50.858;3.964;2023-04-15T00:53:58;14.70;50.90
18177;DHT22;9213;50.858;3.964;2023-04-15T00:56:26;14.70;50.90
18177;DHT22;9213;50.858;3.964;2023-04-15T00:58:55;14.70;51.10
18177;DHT22;9213;50.858;3.964;2023-04-15T01:01:23;14.70;51.10
18177;DHT22;9213;50.858;3.964;2023-04-15T01:03:51;14.60;51.00
18177;DHT22;9213;50.858;3.964;2023-04-15T01:06:19;14.60;51.10
18177;DHT22;9213;50.858;3.964;2023-04-15T01:08:46;14.60;51.30
18177;DHT22;9213;50.858;3.964;2023-04-15T01:11:13;14.50;51.50
18177;DHT22;9213;50.858;3.964;2023-04-15T01:13:41;14.50;51.60
18177;DHT22;9213;50.858;3.964;2023-04-15T01:16:10;14.50;51.60
18177;DHT22;9213;50.858;3.964;2023-04-15T01:18:37;14.50;52.00
18177;DHT22;9213;50.858;3.964;2023-04-15T01:21:05;14.40;51.70
18177;DHT22;9213;50.858;3.964;2023-04-15T01:23:36;14.40;51.70
18177;DHT22;9213;50.858;3.964;2023-04-15T01:26:05;14.40;51.80
18177;DHT22;9213;50.858;3.964;2023-04-15T01:28:33;14.40;52.10
18177;DHT22;9213;50.858;3.964;2023-04-15T01:31:08;14.30;51.80
18177;DHT22;9213;50.858;3.964;2023-04-15T01:33:35;14.30;51.80
18177;DHT22;9213;50.858;3.964;2023-04-15T01:36:03;14.20;52.00
18177;DHT22;9213;50.858;3.964;2023-04-15T01:38:31;14.20;52.60
18177;DHT22;9213;50.858;3.964;2023-04-15T01:40:58;14.20;52.70
18177;DHT22;9213;50.858;3.964;2023-04-15T01:43:26;14.20;52.90
18177;DHT22;9213;50.858;3.964;2023-04-15T01:45:54;14.20;53.20
18177;DHT22;9213;50.858;3.964;2023-04-15T01:48:21;14.10;53.20
18177;DHT22;9213;50.858;3.964;2023-04-15T01:50:48;14.20;53.40
18177;DHT22;9213;50.858;3.964;2023-04-15T01:53:16;14.20;53.40
18177;DHT22;9213;50.858;3.964;2023-04-15T01:55:43;14.20;53.20
18177;DHT22;9213;50.858;3.964;2023-04-15T01:58:10;14.20;53.00
18177;DHT22;9213;50.858;3.964;2023-04-15T02:00:38;14.10;53.10
18177;DHT22;9213;50.858;3.964;2023-04-15T02:03:05;14.10;53.30
18177;DHT22;9213;50.858;3.964;2023-04-15T02:05:32;14.00;53.50
18177;DHT22;9213;50.858;3.964;2023-04-15T02:07:59;14.00;53.70
18177;DHT22;9213;50.858;3.964;2023-04-15T02:10:26;14.00;54.00
18177;DHT22;9213;50.858;3.964;2023-04-15T02:12:53;14.00;54.10
18177;DHT22;9213;50.858;3.964;2023-04-15T02:15:21;14.00;54.30
18177;DHT22;9213;50.858;3.964;2023-04-15T02:17:49;14.00;54.30
18177;DHT22;9213;50.858;3.964;2023-04-15T02:20:18;14.00;54.30
18177;DHT22;9213;50.858;3.964;2023-04-15T02:22:45;13.90;54.20
18177;DHT22;9213;50.858;3.964;2023-04-15T02:25:13;13.90;54.20
18177;DHT22;9213;50.858;3.964;2023-04-15T02:27:41;13.90;54.20
18177;DHT22;9213;50.858;3.964;2023-04-15T02:30:08;13.80;54.40
18177;DHT22;9213;50.858;3.964;2023-04-15T02:32:35;13.80;54.50
18177;DHT22;9213;50.858;3.964;2023-04-15T02:35:05;13.70;54.60
18177;DHT22;9213;50.858;3.964;2023-04-15T02:37:35;13.70;54.70
18177;DHT22;9213;50.858;3.964;2023-04-15T02:40:06;13.70;54.80
18177;DHT22;9213;50.858;3.964;2023-04-15T02:42:33;13.70;54.90
18177;DHT22;9213;50.858;3.964;2023-04-15T02:45:00;13.60;54.90
18177;DHT22;9213;50.858;3.964;2023-04-15T02:47:27;13.60;55.10
18177;DHT22;9213;50.858;3.964;2023-04-15T02:49:54;13.60;55.10
18177;DHT22;9213;50.858;3.964;2023-04-15T02:52:24;13.50;55.10
18177;DHT22;9213;50.858;3.964;2023-04-15T02:54:51;13.50;55.30
18177;DHT22;9213;50.858;3.964;2023-04-15T02:57:22;13.50;55.30
18177;DHT22;9213;50.858;3.964;2023-04-15T02:59:49;13.50;55.40
18177;DHT22;9213;50.858;3.964;2023-04-15T03:02:16;13.50;55.50
18177;DHT22;9213;50.858;3.964;2023-04-15T03:04:43;13.50;55.50
18177;DHT22;9213;50.858;3.964;2023-04-15T03:07:09;13.50;55.50
18177;DHT22;9213;50.858;3.964;2023-04-15T03:09:38;13.50;55.40
18177;DHT22;9213;50.858;3.964;2023-04-15T03:12:06;13.50;55.60
18177;DHT22;9213;50.858;3.964;2023-04-15T03:14:33;13.50;55.50
18177;DHT22;9213;50.858;3.964;2023-04-15T03:17:00;13.40;55.50
18177;DHT22;9213;50.858;3.964;2023-04-15T03:19:27;13.40;55.60
18177;DHT22;9213;50.858;3.964;2023-04-15T03:21:53;13.40;55.60
18177;DHT22;9213;50.858;3.964;2023-04-15T03:24:20;13.30;55.60
18177;DHT22;9213;50.858;3.964;2023-04-15T03:26:49;13.30;55.70
18177;DHT22;9213;50.858;3.964;2023-04-15T03:29:16;13.30;55.70
18177;DHT22;9213;50.858;3.964;2023-04-15T03:31:43;13.20;55.70
18177;DHT22;9213;50.858;3.964;2023-04-15T03:34:10;13.30;55.90
18177;DHT22;9213;50.858;3.964;2023-04-15T03:36:37;13.20;55.80
18177;DHT22;9213;50.858;3.964;2023-04-15T03:39:04;13.20;55.90
18177;DHT22;9213;50.858;3.964;2023-04-15T03:41:31;13.20;56.10
18177;DHT22;9213;50.858;3.964;2023-04-15T03:43:59;13.20;56.10
18177;DHT22;9213;50.858;3.964;2023-04-15T03:46:26;13.20;56.20
18177;DHT22;9213;50.858;3.964;2023-04-15T03:48:53;13.10;56.30
18177;DHT22;9213;50.858;3.964;2023-04-15T03:51:20;13.10;56.40
18177;DHT22;9213;50.858;3.964;2023-04-15T03:53:47;13.10;56.50
18177;DHT22;9213;50.858;3.964;2023-04-15T03:56:14;13.10;56.60
18177;DHT22;9213;50.858;3.964;2023-04-15T03:58:41;13.20;56.60
18177;DHT22;9213;50.858;3.964;2023-04-15T04:01:10;13.10;56.70
18177;DHT22;9213;50.858;3.964;2023-04-15T04:03:37;13.10;56.80
18177;DHT22;9213;50.858;3.964;2023-04-15T04:06:04;13.20;56.80
18177;DHT22;9213;50.858;3.964;2023-04-15T04:08:31;13.10;56.70
18177;DHT22;9213;50.858;3.964;2023-04-15T04:10:58;13.10;56.80
18177;DHT22;9213;50.858;3.964;2023-04-15T04:13:25;13.10;56.80
18177;DHT22;9213;50.858;3.964;2023-04-15T04:15:52;13.10;56.70
18177;DHT22;9213;50.858;3.964;2023-04-15T04:18:20;13.10;56.70
18177;DHT22;9213;50.858;3.964;2023-04-15T04:20:47;13.10;56.90
18177;DHT22;9213;50.858;3.964;2023-04-15T04:23:14;13.00;56.90
18177;DHT22;9213;50.858;3.964;2023-04-15T04:25:41;12.90;57.20
18177;DHT22;9213;50.858;3.964;2023-04-15T04:28:08;12.90;57.40
18177;DHT22;9213;50.858;3.964;2023-04-15T04:30:36;12.80;57.50
18177;DHT22;9213;50.858;3.964;2023-04-15T04:33:03;12.80;57.70
18177;DHT22;9213;50.858;3.964;2023-04-15T04:35:32;12.80;57.90
18177;DHT22;9213;50.858;3.964;2023-04-15T04:38:02;12.80;58.00
18177;DHT22;9213;50.858;3.964;2023-04-15T04:40:29;12.80;58.10
18177;DHT22;9213;50.858;3.964;2023-04-15T04:42:56;12.80;58.20
18177;DHT22;9213;50.858;3.964;2023-04-15T04:45:23;12.80;58.50
18177;DHT22;9213;50.858;3.964;2023-04-15T04:47:50;12.80;58.50
18177;DHT22;9213;50.858;3.964;2023-04-15T04:50:17;12.80;58.60
18177;DHT22;9213;50.858;3.964;2023-04-15T04:52:45;12.80;58.60
18177;DHT22;9213;50.858;3.964;2023-04-15T04:55:12;12.80;58.60
18177;DHT22;9213;50.858;3.964;2023-04-15T04:57:39;12.80;58.60
18177;DHT22;9213;50.858;3.964;2023-04-15T05:00:07;12.80;58.80
18177;DHT22;9213;50.858;3.964;2023-04-15T05:02:34;12.80;58.80
18177;DHT22;9213;50.858;3.964;2023-04-15T05:05:01;12.80;58.80
18177;DHT22;9213;50.858;3.964;2023-04-15T05:07:28;12.80;58.90
18177;DHT22;9213;50.858;3.964;2023-04-15T05:09:56;12.80;58.90
18177;DHT22;9213;50.858;3.964;2023-04-15T05:12:23;12.80;59.00
18177;DHT22;9213;50.858;3.964;2023-04-15T05:14:50;12.80;59.10
18177;DHT22;9213;50.858;3.964;2023-04-15T05:17:17;12.80;59.20
18177;DHT22;9213;50.858;3.964;2023-04-15T05:19:44;12.80;59.20
18177;DHT22;9213;50.858;3.964;2023-04-15T05:22:11;12.90;59.40
18177;DHT22;9213;50.858;3.964;2023-04-15T05:24:38;12.90;59.50
18177;DHT22;9213;50.858;3.964;2023-04-15T05:27:06;12.90;59.50
18177;DHT22;9213;50.858;3.964;2023-04-15T05:29:36;12.90;59.50
18177;DHT22;9213;50.858;3.964;2023-04-15T05:32:03;12.90;59.50
18177;DHT22;9213;50.858;3.964;2023-04-15T05:34:30;13.00;60.40
18177;DHT22;9213;50.858;3.964;2023-04-15T05:36:57;13.00;60.40
18177;DHT22;9213;50.858;3.964;2023-04-15T05:39:24;13.00;59.50
18177;DHT22;9213;50.858;3.964;2023-04-15T05:41:51;13.00;59.60
18177;DHT22;9213;50.858;3.964;2023-04-15T05:44:19;13.10;59.70
18177;DHT22;9213;50.858;3.964;2023-04-15T05:46:46;13.10;59.60
18177;DHT22;9213;50.858;3.964;2023-04-15T05:49:13;13.10;59.50
18177;DHT22;9213;50.858;3.964;2023-04-15T05:51:40;13.20;59.40
18177;DHT22;9213;50.858;3.964;2023-04-15T05:54:07;13.20;59.40
18177;DHT22;9213;50.858;3.964;2023-04-15T05:56:34;13.20;59.40
18177;DHT22;9213;50.858;3.964;2023-04-15T05:59:01;13.30;59.40
18177;DHT22;9213;50.858;3.964;2023-04-15T06:01:29;13.30;59.30
18177;DHT22;9213;50.858;3.964;2023-04-15T06:03:56;13.30;59.30
18177;DHT22;9213;50.858;3.964;2023-04-15T06:06:23;13.30;59.20
18177;DHT22;9213;50.858;3.964;2023-04-15T06:08:51;13.40;59.30
18177;DHT22;9213;50.858;3.964;2023-04-15T06:11:20;13.40;59.30
18177;DHT22;9213;50.858;3.964;2023-04-15T06:13:47;13.50;59.40
18177;DHT22;9213;50.858;3.964;2023-04-15T06:16:14;13.50;59.30
18177;DHT22;9213;50.858;3.964;2023-04-15T06:18:43;13.70;59.10
18177;DHT22;9213;50.858;3.964;2023-04-15T06:21:10;13.70;58.90
18177;DHT22;9213;50.858;3.964;2023-04-15T06:23:37;13.70;58.70
18177;DHT22;9213;50.858;3.964;2023-04-15T06:26:05;13.80;58.50
18177;DHT22;9213;50.858;3.964;2023-04-15T06:28:32;13.80;58.50
18177;DHT22;9213;50.858;3.964;2023-04-15T06:30:59;13.90;58.60
18177;DHT22;9213;50.858;3.964;2023-04-15T06:33:27;13.90;59.30
18177;DHT22;9213;50.858;3.964;2023-04-15T06:35:55;14.10;58.50
18177;DHT22;9213;50.858;3.964;2023-04-15T06:38:22;14.20;58.10
18177;DHT22;9213;50.858;3.964;2023-04-15T06:40:49;14.30;57.80
18177;DHT22;9213;50.858;3.964;2023-04-15T06:43:16;14.50;57.60
18177;DHT22;9213;50.858;3.964;2023-04-15T06:45:44;14.70;56.80
18177;DHT22;9213;50.858;3.964;2023-04-15T06:48:11;14.90;56.20
18177;DHT22;9213;50.858;3.964;2023-04-15T06:50:38;15.10;55.70
18177;DHT22;9213;50.858;3.964;2023-04-15T06:53:07;15.20;55.10
18177;DHT22;9213;50.858;3.964;2023-04-15T06:55:34;15.40;54.80
18177;DHT22;9213;50.858;3.964;2023-04-15T06:58:01;15.60;54.50
18177;DHT22;9213;50.858;3.964;2023-04-15T07:00:28;15.80;54.00
18177;DHT22;9213;50.858;3.964;2023-04-15T07:02:55;16.00;53.80
18177;DHT22;9213;50.858;3.964;2023-04-15T07:05:22;16.10;53.40
18177;DHT22;9213;50.858;3.964;2023-04-15T07:07:50;16.30;52.90
18177;DHT22;9213;50.858;3.964;2023-04-15T07:10:19;16.40;52.40
18177;DHT22;9213;50.858;3.964;2023-04-15T07:12:47;16.50;52.30
18177;DHT22;9213;50.858;3.964;2023-04-15T07:15:15;16.60;52.10
18177;DHT22;9213;50.858;3.964;2023-04-15T07:17:42;16.90;52.00
18177;DHT22;9213;50.858;3.964;2023-04-15T07:20:10;17.10;51.50
18177;DHT22;9213;50.858;3.964;2023-04-15T07:22:37;17.40;51.00
18177;DHT22;9213;50.858;3.964;2023-04-15T07:25:05;17.70;50.20
18177;DHT22;9213;50.858;3.964;2023-04-15T07:27:33;17.90;48.80
18177;DHT22;9213;50.858;3.964;2023-04-15T07:30:01;17.90;47.60
18177;DHT22;9213;50.858;3.964;2023-04-15T07:32:27;18.00;46.70
18177;DHT22;9213;50.858;3.964;2023-04-15T07:34:54;18.00;46.30
18177;DHT22;9213;50.858;3.964;2023-04-15T07:37:22;18.00;46.30
18177;DHT22;9213;50.858;3.964;2023-04-15T07:39:49;18.00;46.00
18177;DHT22;9213;50.858;3.964;2023-04-15T07:42:16;18.00;45.80
18177;DHT22;9213;50.858;3.964;2023-04-15T07:44:44;18.00;45.90
18177;DHT22;9213;50.858;3.964;2023-04-15T07:47:11;17.90;45.70
18177;DHT22;9213;50.858;3.964;2023-04-15T07:49:38;18.00;45.60
18177;DHT22;9213;50.858;3.964;2023-04-15T07:52:05;17.90;45.50
18177;DHT22;9213;50.858;3.964;2023-04-15T07:54:33;17.90;45.00
18177;DHT22;9213;50.858;3.964;2023-04-15T07:57:00;17.90;45.10
18177;DHT22;9213;50.858;3.964;2023-04-15T07:59:28;17.90;45.20
18177;DHT22;9213;50.858;3.964;2023-04-15T08:01:59;17.90;45.50
18177;DHT22;9213;50.858;3.964;2023-04-15T08:04:36;18.10;44.40
18177;DHT22;9213;50.858;3.964;2023-04-15T08:07:03;18.20;44.10
18177;DHT22;9213;50.858;3.964;2023-04-15T08:09:30;18.30;44.10
18177;DHT22;9213;50.858;3.964;2023-04-15T08:11:57;18.30;43.50
18177;DHT22;9213;50.858;3.964;2023-04-15T08:14:24;18.30;43.30
18177;DHT22;9213;50.858;3.964;2023-04-15T08:16:51;18.30;43.60
18177;DHT22;9213;50.858;3.964;2023-04-15T08:19:18;18.40;43.30
18177;DHT22;9213;50.858;3.964;2023-04-15T08:21:47;18.60;43.60
18177;DHT22;9213;50.858;3.964;2023-04-15T08:24:14;19.00;43.10
18177;DHT22;9213;50.858;3.964;2023-04-15T08:26:41;19.40;42.30
18177;DHT22;9213;50.858;3.964;2023-04-15T08:29:08;19.80;41.50
18177;DHT22;9213;50.858;3.964;2023-04-15T08:31:35;20.20;40.60
18177;DHT22;9213;50.858;3.964;2023-04-15T08:34:01;20.50;39.60
18177;DHT22;9213;50.858;3.964;2023-04-15T08:36:29;20.90;39.00
18177;DHT22;9213;50.858;3.964;2023-04-15T08:38:58;21.10;37.80
18177;DHT22;9213;50.858;3.964;2023-04-15T08:41:26;21.40;37.50
18177;DHT22;9213;50.858;3.964;2023-04-15T08:43:57;21.80;37.40
18177;DHT22;9213;50.858;3.964;2023-04-15T08:46:25;22.20;36.50
18177;DHT22;9213;50.858;3.964;2023-04-15T08:48:54;22.60;35.70
18177;DHT22;9213;50.858;3.964;2023-04-15T08:51:22;23.00;34.60
18177;DHT22;9213;50.858;3.964;2023-04-15T08:53:49;23.30;33.70
18177;DHT22;9213;50.858;3.964;2023-04-15T08:56:18;23.70;32.90
18177;DHT22;9213;50.858;3.964;2023-04-15T08:58:48;23.90;31.90
18177;DHT22;9213;50.858;3.964;2023-04-15T09:01:16;24.00;30.80
18177;DHT22;9213;50.858;3.964;2023-04-15T09:03:43;24.00;31.40
18177;DHT22;9213;50.858;3.964;2023-04-15T09:06:10;24.00;30.50
18177;DHT22;9213;50.858;3.964;2023-04-15T09:08:37;23.90;30.30
18177;DHT22;9213;50.858;3.964;2023-04-15T09:11:05;23.80;30.30
18177;DHT22;9213;50.858;3.964;2023-04-15T09:13:33;23.70;30.50
18177;DHT22;9213;50.858;3.964;2023-04-15T09:16:01;23.50;31.40
18177;DHT22;9213;50.858;3.964;2023-04-15T09:18:29;23.20;30.60
18177;DHT22;9213;50.858;3.964;2023-04-15T09:21:04;23.00;31.50
18177;DHT22;9213;50.858;3.964;2023-04-15T09:23:33;22.90;31.40
18177;DHT22;9213;50.858;3.964;2023-04-15T09:26:01;22.60;31.50
18177;DHT22;9213;50.858;3.964;2023-04-15T09:28:28;22.40;31.60
18177;DHT22;9213;50.858;3.964;2023-04-15T09:30:57;22.20;32.10
18177;DHT22;9213;50.858;3.964;2023-04-15T09:33:24;22.20;31.80
18177;DHT22;9213;50.858;3.964;2023-04-15T09:35:56;22.10;32.00
18177;DHT22;9213;50.858;3.964;2023-04-15T09:38:24;22.10;31.80
18177;DHT22;9213;50.858;3.964;2023-04-15T09:40:51;21.90;32.50
18177;DHT22;9213;50.858;3.964;2023-04-15T09:43:18;21.90;32.30
18177;DHT22;9213;50.858;3.964;2023-04-15T09:45:49;21.90;32.30
18177;DHT22;9213;50.858;3.964;2023-04-15T09:48:19;22.00;32.20
18177;DHT22;9213;50.858;3.964;2023-04-15T09:50:47;22.00;32.10
18177;DHT22;9213;50.858;3.964;2023-04-15T09:53:18;22.10;32.00
18177;DHT22;9213;50.858;3.964;2023-04-15T09:55:48;22.20;32.00
18177;DHT22;9213;50.858;3.964;2023-04-15T09:58:20;22.30;32.10
18177;DHT22;9213;50.858;3.964;2023-04-15T10:00:49;22.50;32.20
18177;DHT22;9213;50.858;3.964;2023-04-15T10:03:20;22.60;31.60
18177;DHT22;9213;50.858;3.964;2023-04-15T10:05:48;22.70;31.30
18177;DHT22;9213;50.858;3.964;2023-04-15T10:08:17;22.70;30.30
18177;DHT22;9213;50.858;3.964;2023-04-15T10:10:45;22.90;30.30
18177;DHT22;9213;50.858;3.964;2023-04-15T10:13:13;23.00;30.40
18177;DHT22;9213;50.858;3.964;2023-04-15T10:15:43;23.10;30.00
18177;DHT22;9213;50.858;3.964;2023-04-15T10:18:15;23.20;29.40
18177;DHT22;9213;50.858;3.964;2023-04-15T10:20:45;23.40;29.40
18177;DHT22;9213;50.858;3.964;2023-04-15T10:23:14;23.60;29.60
18177;DHT22;9213;50.858;3.964;2023-04-15T10:25:42;23.70;28.90
18177;DHT22;9213;50.858;3.964;2023-04-15T10:28:09;23.70;29.70
18177;DHT22;9213;50.858;3.964;2023-04-15T10:30:37;23.80;28.50
18177;DHT22;9213;50.858;3.964;2023-04-15T10:33:04;23.90;27.10
18177;DHT22;9213;50.858;3.964;2023-04-15T10:35:32;23.80;25.70
18177;DHT22;9213;50.858;3.964;2023-04-15T10:38:01;23.70;26.70
18177;DHT22;9213;50.858;3.964;2023-04-15T10:40:29;23.60;25.90
18177;DHT22;9213;50.858;3.964;2023-04-15T10:42:58;23.70;25.40
18177;DHT22;9213;50.858;3.964;2023-04-15T10:45:26;23.70;25.20
18177;DHT22;9213;50.858;3.964;2023-04-15T10:47:57;23.80;26.20
18177;DHT22;9213;50.858;3.964;2023-04-15T10:50:29;23.90;24.70
18177;DHT22;9213;50.858;3.964;2023-04-15T10:52:57;24.00;25.40
18177;DHT22;9213;50.858;3.964;2023-04-15T10:55:26;24.00;25.60
18177;DHT22;9213;50.858;3.964;2023-04-15T10:57:58;24.10;26.30
18177;DHT22;9213;50.858;3.964;2023-04-15T11:00:28;24.10;26.00
18177;DHT22;9213;50.858;3.964;2023-04-15T11:02:57;24.20;24.80
18177;DHT22;9213;50.858;3.964;2023-04-15T11:05:48;24.20;24.40
18177;DHT22;9213;50.858;3.964;2023-04-15T11:08:15;24.20;25.30
18177;DHT22;9213;50.858;3.964;2023-04-15T11:10:53;24.20;24.20
18177;DHT22;9213;50.858;3.964;2023-04-15T11:13:24;24.20;25.20
18177;DHT22;9213;50.858;3.964;2023-04-15T11:15:56;24.30;24.40
18177;DHT22;9213;50.858;3.964;2023-04-15T11:18:25;24.30;24.80
18177;DHT22;9213;50.858;3.964;2023-04-15T11:20:54;24.50;24.50
18177;DHT22;9213;50.858;3.964;2023-04-15T11:23:27;24.60;23.40
18177;DHT22;9213;50.858;3.964;2023-04-15T11:25:57;24.60;24.30
18177;DHT22;9213;50.858;3.964;2023-04-15T11:28:25;24.60;24.20
18177;DHT22;9213;50.858;3.964;2023-04-15T11:30:53;24.70;23.00
18177;DHT22;9213;50.858;3.964;2023-04-15T11:33:22;24.80;22.80
18177;DHT22;9213;50.858;3.964;2023-04-15T11:35:49;24.80;24.10
18177;DHT22;9213;50.858;3.964;2023-04-15T11:38:17;24.90;22.90
18177;DHT22;9213;50.858;3.964;2023-04-15T11:40:44;25.00;22.70
18177;DHT22;9213;50.858;3.964;2023-04-15T11:43:14;25.10;23.00
18177;DHT22;9213;50.858;3.964;2023-04-15T11:45:50;25.30;22.60
18177;DHT22;9213;50.858;3.964;2023-04-15T11:48:18;25.40;21.40
18177;DHT22;9213;50.858;3.964;2023-04-15T11:50:51;25.40;20.00
18177;DHT22;9213;50.858;3.964;2023-04-15T11:53:18;25.50;20.60
18177;DHT22;9213;50.858;3.964;2023-04-15T11:55:46;25.40;19.80
18177;DHT22;9213;50.858;3.964;2023-04-15T11:58:16;25.40;20.00
18177;DHT22;9213;50.858;3.964;2023-04-15T12:00:47;25.40;19.20
18177;DHT22;9213;50.858;3.964;2023-04-15T12:03:20;25.40;20.10
18177;DHT22;9213;50.858;3.964;2023-04-15T12:06:11;25.50;20.80
18177;DHT22;9213;50.858;3.964;2023-04-15T12:09:03;25.50;20.00
18177;DHT22;9213;50.858;3.964;2023-04-15T12:11:35;25.60;20.70
18177;DHT22;9213;50.858;3.964;2023-04-15T12:14:07;25.50;19.60
18177;DHT22;9213;50.858;3.964;2023-04-15T12:16:35;25.50;20.20
18177;DHT22;9213;50.858;3.964;2023-04-15T12:19:08;25.50;19.70
18177;DHT22;9213;50.858;3.964;2023-04-15T12:21:36;25.60;19.80
18177;DHT22;9213;50.858;3.964;2023-04-15T12:24:05;25.70;18.20
18177;DHT22;9213;50.858;3.964;2023-04-15T12:26:35;25.80;18.00
18177;DHT22;9213;50.858;3.964;2023-04-15T12:29:06;25.80;18.10
18177;DHT22;9213;50.858;3.964;2023-04-15T12:31:34;25.80;17.60
18177;DHT22;9213;50.858;3.964;2023-04-15T12:34:02;25.80;17.90
18177;DHT22;9213;50.858;3.964;2023-04-15T12:36:29;25.70;16.80
18177;DHT22;9213;50.858;3.964;2023-04-15T12:39:01;25.70;17.10
18177;DHT22;9213;50.858;3.964;2023-04-15T12:41:28;25.70;17.10
18177;DHT22;9213;50.858;3.964;2023-04-15T12:43:55;25.70;17.90
18177;DHT22;9213;50.858;3.964;2023-04-15T12:46:24;25.70;18.50
18177;DHT22;9213;50.858;3.964;2023-04-15T12:48:52;25.70;19.20
18177;DHT22;9213;50.858;3.964;2023-04-15T12:51:19;25.70;18.30
18177;DHT22;9213;50.858;3.964;2023-04-15T12:53:46;25.70;18.90
18177;DHT22;9213;50.858;3.964;2023-04-15T12:56:14;25.70;17.50
18177;DHT22;9213;50.858;3.964;2023-04-15T12:58:41;25.70;17.40
18177;DHT22;9213;50.858;3.964;2023-04-15T13:01:08;25.60;17.10
18177;DHT22;9213;50.858;3.964;2023-04-15T13:03:37;25.60;17.50
18177;DHT22;9213;50.858;3.964;2023-04-15T13:06:04;25.60;17.20
18177;DHT22;9213;50.858;3.964;2023-04-15T13:08:31;25.50;18.70
18177;DHT22;9213;50.858;3.964;2023-04-15T13:10:58;25.60;19.20
18177;DHT22;9213;50.858;3.964;2023-04-15T13:13:25;25.60;18.30
18177;DHT22;9213;50.858;3.964;2023-04-15T13:15:53;25.60;18.90
18177;DHT22;9213;50.858;3.964;2023-04-15T13:18:19;25.70;19.50
18177;DHT22;9213;50.858;3.964;2023-04-15T13:20:50;25.80;20.00
18177;DHT22;9213;50.858;3.964;2023-04-15T13:23:17;25.80;19.70
18177;DHT22;9213;50.858;3.964;2023-04-15T13:25:44;25.80;19.40
18177;DHT22;9213;50.858;3.964;2023-04-15T13:28:11;25.80;19.20
18177;DHT22;9213;50.858;3.964;2023-04-15T13:30:38;25.70;19.20
18177;DHT22;9213;50.858;3.964;2023-04-15T13:33:05;25.60;18.10
18177;DHT22;9213;50.858;3.964;2023-04-15T13:35:32;25.60;18.70
18177;DHT22;9213;50.858;3.964;2023-04-15T13:38:00;25.50;18.70
18177;DHT22;9213;50.858;3.964;2023-04-15T13:40:27;25.40;19.00
18177;DHT22;9213;50.858;3.964;2023-04-15T13:42:54;25.30;19.70
18177;DHT22;9213;50.858;3.964;2023-04-15T13:45:22;25.30;19.60
18177;DHT22;9213;50.858;3.964;2023-04-15T13:47:49;25.20;19.20
18177;DHT22;9213;50.858;3.964;2023-04-15T13:50:16;25.10;19.90
18177;DHT22;9213;50.858;3.964;2023-04-15T13:52:43;25.00;19.90
18177;DHT22;9213;50.858;3.964;2023-04-15T13:55:11;24.90;20.10
18177;DHT22;9213;50.858;3.964;2023-04-15T13:57:38;24.90;19.50
18177;DHT22;9213;50.858;3.964;2023-04-15T14:00:06;24.80;20.20
18177;DHT22;9213;50.858;3.964;2023-04-15T14:02:33;24.80;20.00
18177;DHT22;9213;50.858;3.964;2023-04-15T14:05:00;24.70;20.00
18177;DHT22;9213;50.858;3.964;2023-04-15T14:07:28;24.70;21.60
18177;DHT22;9213;50.858;3.964;2023-04-15T14:09:55;24.60;20.50
18177;DHT22;9213;50.858;3.964;2023-04-15T14:12:23;24.50;20.40
18177;DHT22;9213;50.858;3.964;2023-04-15T14:14:50;24.50;20.70
18177;DHT22;9213;50.858;3.964;2023-04-15T14:17:17;24.40;21.50
18177;DHT22;9213;50.858;3.964;2023-04-15T14:19:44;24.30;22.00
18177;DHT22;9213;50.858;3.964;2023-04-15T14:22:11;24.20;21.20
18177;DHT22;9213;50.858;3.964;2023-04-15T14:24:38;24.10;20.70
18177;DHT22;9213;50.858;3.964;2023-04-15T14:27:05;24.00;21.90
18177;DHT22;9213;50.858;3.964;2023-04-15T14:29:34;23.90;20.40
18177;DHT22;9213;50.858;3.964;2023-04-15T14:32:01;23.80;20.30
18177;DHT22;9213;50.858;3.964;2023-04-15T14:34:28;23.70;20.90
18177;DHT22;9213;50.858;3.964;2023-04-15T14:36:55;23.60;21.90
18177;DHT22;9213;50.858;3.964;2023-04-15T14:39:22;23.40;22.60
18177;DHT22;9213;50.858;3.964;2023-04-15T14:41:49;23.40;22.70
18177;DHT22;9213;50.858;3.964;2023-04-15T14:44:16;23.30;22.90
18177;DHT22;9213;50.858;3.964;2023-04-15T14:46:44;23.30;24.00
18177;DHT22;9213;50.858;3.964;2023-04-15T14:49:11;23.30;23.60
18177;DHT22;9213;50.858;3.964;2023-04-15T14:51:38;23.20;24.40
18177;DHT22;9213;50.858;3.964;2023-04-15T14:54:05;23.20;24.10
18177;DHT22;9213;50.858;3.964;2023-04-15T14:56:32;23.10;24.70
18177;DHT22;9213;50.858;3.964;2023-04-15T14:58:59;23.00;25.10
18177;DHT22;9213;50.858;3.964;2023-04-15T15:01:26;23.00;25.00
18177;DHT22;9213;50.858;3.964;2023-04-15T15:03:55;22.90;24.60
18177;DHT22;9213;50.858;3.964;2023-04-15T15:06:22;22.80;25.20
18177;DHT22;9213;50.858;3.964;2023-04-15T15:08:50;22.70;25.50
18177;DHT22;9213;50.858;3.964;2023-04-15T15:11:17;22.70;25.50
18177;DHT22;9213;50.858;3.964;2023-04-15T15:13:44;22.60;26.00
18177;DHT22;9213;50.858;3.964;2023-04-15T15:16:11;22.50;26.30
18177;DHT22;9213;50.858;3.964;2023-04-15T15:18:38;22.40;26.10
18177;DHT22;9213;50.858;3.964;2023-04-15T15:21:06;22.30;25.80
18177;DHT22;9213;50.858;3.964;2023-04-15T15:23:33;22.20;25.60
18177;DHT22;9213;50.858;3.964;2023-04-15T15:26:00;22.10;25.30
18177;DHT22;9213;50.858;3.964;2023-04-15T15:28:27;22.00;25.70
18177;DHT22;9213;50.858;3.964;2023-04-15T15:30:53;21.90;25.70
18177;DHT22;9213;50.858;3.964;2023-04-15T15:33:20;21.80;23.80
18177;DHT22;9213;50.858;3.964;2023-04-15T15:35:47;21.70;25.00
18177;DHT22;9213;50.858;3.964;2023-04-15T15:38:17;21.60;25.30
18177;DHT22;9213;50.858;3.964;2023-04-15T15:40:44;21.60;26.60
18177;DHT22;9213;50.858;3.964;2023-04-15T15:43:11;21.60;27.70
18177;DHT22;9213;50.858;3.964;2023-04-15T15:45:38;21.50;28.70
18177;DHT22;9213;50.858;3.964;2023-04-15T15:48:05;21.50;29.30
18177;DHT22;9213;50.858;3.964;2023-04-15T15:50:33;21.40;28.80